createdAt,value
2022-08-01T00:00:52.757Z,64.10
2022-08-01T00:03:19.976Z,64.10
2022-08-01T00:05:48.546Z,64.10
2022-08-01T00:08:15.941Z,64.10
2022-08-01T00:10:43.089Z,64.50
2022-08-01T00:13:12.914Z,64.10
2022-08-01T00:15:40.336Z,64.10
2022-08-01T00:18:07.562Z,64.10
2022-08-01T00:20:34.733Z,64.60
2022-08-01T00:23:04.167Z,64.10
2022-08-01T00:25:34.434Z,64.10
2022-08-01T00:28:04.054Z,64.10
2022-08-01T00:30:32.107Z,64.10
2022-08-01T00:32:59.279Z,64.00
2022-08-01T00:35:26.471Z,64.00
2022-08-01T00:37:53.853Z,64.10
2022-08-01T00:40:21.151Z,64.50
2022-08-01T00:42:48.566Z,64.00
2022-08-01T00:45:15.775Z,64.00
2022-08-01T00:47:43.127Z,64.00
2022-08-01T00:50:11.100Z,64.60
2022-08-01T00:52:42.957Z,64.60
2022-08-01T00:55:19.756Z,64.40
2022-08-01T00:58:03.184Z,64.40
2022-08-01T01:00:53.244Z,64.30
2022-08-01T01:03:43.320Z,64.00
2022-08-01T01:06:28.146Z,64.10
2022-08-01T01:09:21.008Z,63.90
2022-08-01T01:12:09.865Z,64.00
2022-08-01T01:14:47.662Z,63.90
2022-08-01T01:17:31.212Z,63.90
2022-08-01T01:20:07.873Z,64.00
2022-08-01T01:22:47.480Z,64.00
2022-08-01T01:25:17.569Z,63.90
2022-08-01T01:28:02.914Z,63.90
2022-08-01T01:30:32.698Z,64.10
2022-08-01T01:33:03.454Z,63.90
2022-08-01T01:35:37.594Z,64.40
2022-08-01T01:38:19.726Z,64.50
2022-08-01T01:40:48.805Z,64.00
2022-08-01T01:43:17.761Z,64.30
2022-08-01T01:45:47.293Z,63.90
2022-08-01T01:48:17.456Z,63.90
2022-08-01T01:50:47.497Z,64.10
2022-08-01T01:53:21.302Z,64.40
2022-08-01T01:55:51.539Z,64.10
2022-08-01T01:58:21.551Z,63.90
2022-08-01T02:00:50.930Z,63.90
2022-08-01T02:03:19.689Z,63.90
2022-08-01T02:05:48.305Z,63.90
2022-08-01T02:08:17.442Z,64.10
2022-08-01T02:11:06.503Z,64.40
2022-08-01T02:13:36.510Z,64.10
2022-08-01T02:16:04.848Z,64.40
2022-08-01T02:18:33.480Z,63.90
2022-08-01T02:21:03.132Z,63.80
2022-08-01T02:23:35.086Z,64.10
2022-08-01T02:26:10.816Z,64.10
2022-08-01T02:28:50.575Z,64.30
2022-08-01T02:31:21.465Z,64.60
2022-08-01T02:34:11.140Z,64.10
2022-08-01T02:36:39.684Z,64.20
2022-08-01T02:39:14.658Z,64.10
2022-08-01T02:41:44.412Z,63.90
2022-08-01T02:44:19.912Z,63.70
2022-08-01T02:46:53.818Z,63.80
2022-08-01T02:49:23.030Z,63.60
2022-08-01T02:51:52.010Z,63.50
2022-08-01T02:54:22.522Z,63.50
2022-08-01T02:56:52.584Z,63.30
2022-08-01T02:59:25.807Z,63.30
2022-08-01T03:01:56.278Z,63.40
2022-08-01T03:04:25.538Z,63.50
2022-08-01T03:06:55.192Z,63.60
2022-08-01T03:09:23.221Z,63.40
2022-08-01T03:11:51.598Z,63.40
2022-08-01T03:14:21.899Z,63.50
2022-08-01T03:16:51.069Z,63.50
2022-08-01T03:19:21.302Z,63.80
2022-08-01T03:21:50.830Z,63.50
2022-08-01T03:24:20.582Z,63.60
2022-08-01T03:26:48.939Z,63.70
2022-08-01T03:29:25.818Z,63.70
2022-08-01T03:31:54.128Z,64.00
2022-08-01T03:34:24.236Z,63.80
2022-08-01T03:37:03.525Z,63.80
2022-08-01T03:39:37.176Z,63.70
2022-08-01T03:42:13.086Z,63.70
2022-08-01T03:44:42.435Z,63.90
2022-08-01T03:47:11.645Z,63.90
2022-08-01T03:49:48.010Z,63.60
2022-08-01T03:52:16.204Z,63.60
2022-08-01T03:54:49.601Z,63.50
2022-08-01T03:57:36.375Z,63.50
2022-08-01T04:00:10.038Z,63.40
2022-08-01T04:02:38.637Z,63.00
2022-08-01T04:05:06.749Z,62.90
2022-08-01T04:07:39.006Z,62.80
2022-08-01T04:10:07.018Z,62.80
2022-08-01T04:12:36.807Z,62.90
2022-08-01T04:15:05.129Z,62.80
2022-08-01T04:17:32.590Z,62.80
2022-08-01T04:20:01.062Z,62.70
2022-08-01T04:22:28.473Z,62.70
2022-08-01T04:24:57.959Z,62.70
2022-08-01T04:27:51.510Z,62.70
2022-08-01T04:30:30.910Z,62.70
2022-08-01T04:33:02.631Z,62.70
2022-08-01T04:36:02.242Z,63.00
2022-08-01T04:38:24.216Z,63.10
2022-08-01T04:40:53.120Z,63.30
2022-08-01T04:43:20.480Z,63.30
2022-08-01T04:45:49.827Z,63.40
2022-08-01T04:48:22.871Z,63.60
2022-08-01T04:50:50.679Z,63.60
2022-08-01T04:53:22.978Z,63.60
2022-08-01T04:55:50.305Z,63.80
2022-08-01T04:58:18.782Z,63.80
2022-08-01T05:00:47.920Z,63.80
2022-08-01T05:03:15.409Z,64.30
2022-08-01T05:05:42.764Z,64.40
2022-08-01T05:08:09.977Z,64.60
2022-08-01T05:10:37.390Z,64.50
2022-08-01T05:13:04.638Z,64.50
2022-08-01T05:15:32.283Z,64.40
2022-08-01T05:17:59.448Z,64.30
2022-08-01T05:20:26.744Z,64.30
2022-08-01T05:22:53.994Z,64.10
2022-08-01T05:25:56.864Z,64.10
2022-08-01T05:28:08.567Z,64.10
2022-08-01T05:30:35.714Z,64.10
2022-08-01T05:33:02.922Z,64.00
2022-08-01T05:35:48.977Z,64.00
2022-08-01T05:38:17.046Z,64.00
2022-08-01T05:40:44.541Z,64.00
2022-08-01T05:43:11.894Z,63.90
2022-08-01T05:45:39.118Z,63.90
2022-08-01T05:48:06.586Z,63.90
2022-08-01T05:50:36.681Z,64.00
2022-08-01T05:53:03.920Z,64.10
2022-08-01T05:55:31.846Z,63.90
2022-08-01T05:57:59.074Z,63.70
2022-08-01T06:00:26.338Z,63.40
2022-08-01T06:02:53.956Z,63.00
2022-08-01T06:05:21.431Z,62.90
2022-08-01T06:07:48.709Z,62.70
2022-08-01T06:10:16.010Z,62.60
2022-08-01T06:12:44.568Z,62.60
2022-08-01T06:15:15.256Z,62.60
2022-08-01T06:17:42.551Z,62.60
2022-08-01T06:20:10.625Z,62.40
2022-08-01T06:22:37.865Z,62.30
2022-08-01T06:25:06.550Z,62.20
2022-08-01T06:27:36.688Z,62.10
2022-08-01T06:30:06.014Z,61.70
2022-08-01T06:32:33.210Z,61.50
2022-08-01T06:35:00.840Z,61.50
2022-08-01T06:37:33.114Z,61.10
2022-08-01T06:40:14.729Z,60.90
2022-08-01T06:42:44.232Z,60.80
2022-08-01T06:45:13.595Z,60.30
2022-08-01T06:47:41.969Z,60.00
2022-08-01T06:50:10.535Z,59.60
2022-08-01T06:52:39.201Z,59.20
2022-08-01T06:55:06.962Z,58.70
2022-08-01T06:57:34.325Z,58.00
2022-08-01T07:00:11.915Z,57.80
2022-08-01T07:02:41.763Z,57.60
2022-08-01T07:05:11.435Z,57.60
2022-08-01T07:07:42.679Z,54.90
2022-08-01T07:10:10.755Z,54.80
2022-08-01T07:12:39.252Z,54.00
2022-08-01T07:15:07.061Z,53.40
2022-08-01T07:17:44.993Z,52.00
2022-08-01T07:20:16.169Z,52.80
2022-08-01T07:22:44.239Z,52.70
2022-08-01T07:25:14.993Z,52.10
2022-08-01T07:27:42.372Z,52.90
2022-08-01T07:30:13.045Z,52.90
2022-08-01T07:32:41.640Z,52.80
2022-08-01T07:35:09.393Z,51.70
2022-08-01T07:37:47.667Z,51.20
2022-08-01T07:40:19.353Z,50.90
2022-08-01T07:42:47.579Z,50.00
2022-08-01T07:45:15.915Z,50.30
2022-08-01T07:47:43.618Z,50.20
2022-08-01T07:50:11.449Z,50.20
2022-08-01T07:52:38.809Z,50.50
2022-08-01T07:55:06.713Z,50.30
2022-08-01T07:57:34.116Z,50.60
2022-08-01T08:00:02.064Z,50.80
2022-08-01T08:02:29.361Z,50.40
2022-08-01T08:04:57.694Z,50.60
2022-08-01T08:07:25.187Z,50.30
2022-08-01T08:09:52.442Z,50.50
2022-08-01T08:12:28.355Z,50.70
2022-08-01T08:15:00.072Z,50.30
2022-08-01T08:17:27.607Z,50.10
2022-08-01T08:19:55.109Z,49.80
2022-08-01T08:22:22.279Z,50.20
2022-08-01T08:24:49.434Z,50.10
2022-08-01T08:27:17.012Z,50.40
2022-08-01T08:29:46.626Z,50.20
2022-08-01T08:32:14.481Z,50.30
2022-08-01T08:34:41.999Z,50.30
2022-08-01T08:37:09.498Z,50.40
2022-08-01T08:39:42.010Z,50.40
2022-08-01T08:42:11.670Z,50.60
2022-08-01T08:44:43.643Z,50.50
2022-08-01T08:47:18.752Z,50.60
2022-08-01T08:49:49.436Z,50.40
2022-08-01T08:52:24.260Z,50.20
2022-08-01T08:54:54.141Z,49.50
2022-08-01T08:57:22.441Z,48.90
2022-08-01T08:59:53.156Z,49.30
2022-08-01T09:02:20.548Z,48.80
2022-08-01T09:04:50.293Z,48.90
2022-08-01T09:07:20.526Z,49.30
2022-08-01T09:09:50.267Z,49.40
2022-08-01T09:12:20.536Z,49.50
2022-08-01T09:14:48.824Z,49.30
2022-08-01T09:17:17.714Z,49.90
2022-08-01T09:19:50.442Z,49.90
2022-08-01T09:22:22.464Z,49.90
2022-08-01T09:25:29.664Z,50.00
2022-08-01T09:28:07.020Z,49.90
2022-08-01T09:30:43.563Z,49.50
2022-08-01T09:33:17.841Z,49.60
2022-08-01T09:35:57.096Z,49.80
2022-08-01T09:38:32.540Z,48.90
2022-08-01T09:41:01.810Z,49.00
2022-08-01T09:43:32.594Z,48.80
2022-08-01T09:46:05.188Z,49.00
2022-08-01T09:48:34.498Z,49.30
2022-08-01T09:51:07.294Z,49.00
2022-08-01T09:53:52.017Z,47.70
2022-08-01T09:56:22.207Z,48.90
2022-08-01T09:59:02.367Z,48.40
2022-08-01T10:01:43.864Z,48.50
2022-08-01T10:04:23.858Z,49.00
2022-08-01T10:06:55.535Z,48.90
2022-08-01T10:09:39.718Z,49.10
2022-08-01T10:12:08.994Z,49.50
2022-08-01T10:14:42.936Z,49.30
2022-08-01T10:17:19.522Z,49.20
2022-08-01T10:19:50.891Z,49.30
2022-08-01T10:22:21.217Z,49.40
2022-08-01T10:24:51.196Z,49.30
2022-08-01T10:27:24.216Z,48.80
2022-08-01T10:30:14.266Z,48.70
2022-08-01T10:32:50.857Z,48.90
2022-08-01T10:35:24.122Z,48.40
2022-08-01T10:38:13.436Z,47.50
2022-08-01T10:40:45.419Z,46.80
2022-08-01T10:43:21.638Z,47.80
2022-08-01T10:45:53.567Z,45.20
2022-08-01T10:48:27.313Z,45.80
2022-08-01T10:51:02.685Z,45.00
2022-08-01T10:53:31.055Z,45.60
2022-08-01T10:56:02.607Z,45.60
2022-08-01T10:58:49.806Z,45.50
2022-08-01T11:01:22.380Z,44.70
2022-08-01T11:04:01.624Z,45.30
2022-08-01T11:06:34.806Z,45.00
2022-08-01T11:09:16.496Z,45.10
2022-08-01T11:12:02.896Z,44.40
2022-08-01T11:14:55.157Z,43.60
2022-08-01T11:17:42.093Z,44.30
2022-08-01T11:20:27.882Z,44.30
2022-08-01T11:23:07.634Z,43.60
2022-08-01T11:26:03.587Z,43.70
2022-08-01T11:28:32.676Z,43.20
2022-08-01T11:31:21.248Z,43.20
2022-08-01T11:33:50.718Z,43.10
2022-08-01T11:36:55.475Z,43.30
2022-08-01T11:39:13.812Z,43.30
2022-08-01T11:41:42.622Z,43.40
2022-08-01T11:44:18.526Z,43.20
2022-08-01T11:47:09.815Z,43.20
2022-08-01T11:49:49.372Z,41.80
2022-08-01T11:52:34.715Z,41.20
2022-08-01T11:55:02.479Z,41.50
2022-08-01T11:57:33.897Z,41.30
2022-08-01T12:00:08.753Z,41.50
2022-08-01T12:02:37.372Z,41.30
2022-08-01T12:05:08.539Z,39.30
2022-08-01T12:07:41.673Z,40.40
2022-08-01T12:10:14.795Z,40.30
2022-08-01T12:12:47.590Z,40.80
2022-08-01T12:15:15.266Z,40.40
2022-08-01T12:17:47.092Z,40.90
2022-08-01T12:20:32.180Z,41.20
2022-08-01T12:23:02.062Z,41.60
2022-08-01T12:25:30.157Z,41.00
2022-08-01T12:28:04.586Z,41.30
2022-08-01T12:30:36.449Z,41.50
2022-08-01T12:33:06.295Z,41.90
2022-08-01T12:35:39.473Z,42.80
2022-08-01T12:38:14.437Z,43.20
2022-08-01T12:40:45.530Z,43.30
2022-08-01T12:43:21.290Z,43.20
2022-08-01T12:46:00.144Z,43.10
2022-08-01T12:48:28.803Z,43.30
2022-08-01T12:50:59.366Z,43.20
2022-08-01T12:53:39.928Z,43.00
2022-08-01T12:56:09.883Z,43.10
2022-08-01T12:58:37.270Z,43.10
2022-08-01T13:01:07.698Z,43.40
2022-08-01T13:03:36.126Z,43.70
2022-08-01T13:06:15.917Z,43.80
2022-08-01T13:08:44.520Z,43.80
2022-08-01T13:11:18.218Z,43.80
2022-08-01T13:14:16.197Z,43.90
2022-08-01T13:16:57.139Z,43.80
2022-08-01T13:19:46.506Z,44.10
2022-08-01T13:22:13.867Z,44.10
2022-08-01T13:24:41.858Z,44.10
2022-08-01T13:27:21.828Z,44.00
2022-08-01T13:29:50.981Z,43.90
2022-08-01T13:32:27.992Z,43.80
2022-08-01T13:35:06.168Z,43.70
2022-08-01T13:37:33.546Z,43.10
2022-08-01T13:40:08.764Z,43.00
2022-08-01T13:42:36.426Z,43.00
2022-08-01T13:45:14.139Z,42.70
2022-08-01T13:48:03.302Z,41.40
2022-08-01T13:50:35.562Z,41.50
2022-08-01T13:53:02.766Z,42.00
2022-08-01T13:55:34.561Z,41.60
2022-08-01T13:58:03.996Z,41.50
2022-08-01T14:00:31.639Z,41.50
2022-08-01T14:02:58.867Z,41.60
2022-08-01T14:05:26.253Z,41.20
2022-08-01T14:07:56.429Z,41.60
2022-08-01T14:10:24.931Z,40.60
2022-08-01T14:12:52.160Z,41.00
2022-08-01T14:15:37.544Z,41.00
2022-08-01T14:18:09.675Z,41.40
2022-08-01T14:20:38.818Z,41.30
2022-08-01T14:23:08.829Z,41.70
2022-08-01T14:26:03.205Z,42.60
2022-08-01T14:28:26.529Z,43.70
2022-08-01T14:30:54.077Z,50.60
2022-08-01T14:33:21.593Z,54.60
2022-08-01T14:36:05.534Z,60.80
2022-08-01T14:38:35.088Z,63.20
2022-08-01T14:41:04.535Z,62.10
2022-08-01T14:43:34.056Z,67.60
2022-08-01T14:46:02.200Z,63.40
2022-08-01T14:48:29.910Z,63.50
2022-08-01T14:50:58.780Z,65.30
2022-08-01T14:53:26.216Z,63.20
2022-08-01T14:55:53.995Z,63.10
2022-08-01T14:58:21.324Z,64.00
2022-08-01T15:00:48.572Z,63.30
2022-08-01T15:03:16.120Z,62.90
2022-08-01T15:05:43.470Z,62.80
2022-08-01T15:08:10.822Z,63.40
2022-08-01T15:10:38.168Z,66.40
2022-08-01T15:13:05.482Z,66.60
2022-08-01T15:15:33.154Z,65.00
2022-08-01T15:18:00.911Z,64.60
2022-08-01T15:20:31.240Z,65.00
2022-08-01T15:22:58.722Z,63.80
2022-08-01T15:25:41.626Z,65.40
2022-08-01T15:28:10.754Z,63.70
2022-08-01T15:30:38.997Z,63.50
2022-08-01T15:33:07.499Z,64.50
2022-08-01T15:35:35.131Z,63.60
2022-08-01T15:38:02.466Z,63.80
2022-08-01T15:40:29.880Z,63.50
2022-08-01T15:42:57.359Z,64.40
2022-08-01T15:48:12.223Z,63.20
2022-08-01T15:50:39.883Z,63.90
2022-08-01T15:53:08.116Z,64.10
2022-08-01T15:55:41.610Z,64.40
2022-08-01T15:58:11.662Z,65.40
2022-08-01T16:00:42.170Z,63.40
2022-08-01T16:03:10.608Z,62.10
2022-08-01T16:05:43.567Z,60.70
2022-08-01T16:08:17.771Z,59.70
2022-08-01T16:10:45.084Z,59.50
2022-08-01T16:13:12.810Z,59.50
2022-08-01T16:15:40.683Z,60.60
2022-08-01T16:18:10.047Z,61.70
2022-08-01T16:20:42.950Z,60.60
2022-08-01T16:23:12.052Z,61.30
2022-08-01T16:25:39.706Z,60.60
2022-08-01T16:28:07.108Z,59.50
2022-08-01T16:30:35.141Z,58.40
2022-08-01T16:33:03.942Z,57.40
2022-08-01T16:35:36.326Z,56.70
2022-08-01T16:38:07.390Z,57.10
2022-08-01T16:40:46.318Z,57.30
2022-08-01T16:43:16.132Z,56.90
2022-08-01T16:45:43.726Z,55.70
2022-08-01T16:48:13.248Z,55.00
2022-08-01T16:50:40.713Z,54.30
2022-08-01T16:53:08.250Z,54.00
2022-08-01T16:55:49.185Z,55.30
2022-08-01T16:58:23.505Z,56.70
2022-08-01T17:01:59.986Z,58.30
2022-08-01T17:03:53.705Z,59.00
2022-08-01T17:06:26.395Z,60.40
2022-08-01T17:08:54.772Z,61.20
2022-08-01T17:11:22.236Z,62.70
2022-08-01T17:13:51.443Z,62.70
2022-08-01T17:16:18.783Z,63.30
2022-08-01T17:18:46.321Z,64.10
2022-08-01T17:21:15.246Z,64.50
2022-08-01T17:23:45.257Z,64.90
2022-08-01T17:26:13.099Z,65.20
2022-08-01T17:28:40.596Z,65.80
2022-08-01T17:31:10.689Z,66.30
2022-08-01T17:33:45.597Z,66.80
2022-08-01T17:36:23.160Z,66.60
2022-08-01T17:38:50.690Z,67.00
2022-08-01T17:41:19.319Z,68.50
2022-08-01T17:43:46.556Z,68.40
2022-08-01T17:46:15.020Z,68.60
2022-08-01T17:48:42.347Z,69.00
2022-08-01T17:51:10.270Z,69.70
2022-08-01T17:53:37.640Z,69.60
2022-08-01T17:56:37.622Z,70.80
2022-08-01T17:59:08.050Z,70.30
2022-08-01T18:01:37.379Z,72.20
2022-08-01T18:04:16.670Z,72.20
2022-08-01T18:06:58.283Z,72.10
2022-08-01T18:09:33.649Z,72.90
2022-08-01T18:12:13.504Z,72.20
2022-08-01T18:14:43.923Z,73.10
2022-08-01T18:17:12.180Z,73.00
2022-08-01T18:19:40.619Z,73.10
2022-08-01T18:22:28.821Z,74.30
2022-08-01T18:24:56.635Z,74.60
2022-08-01T18:27:24.039Z,76.30
2022-08-01T18:30:12.527Z,76.20
2022-08-01T18:32:39.776Z,75.00
2022-08-01T18:35:14.092Z,76.60
2022-08-01T18:37:47.119Z,75.00
2022-08-01T18:40:24.538Z,75.00
2022-08-01T18:42:54.558Z,74.70
2022-08-01T18:45:22.173Z,75.20
2022-08-01T18:47:50.673Z,76.20
2022-08-01T18:50:19.128Z,76.10
2022-08-01T18:52:47.408Z,75.90
2022-08-01T18:55:14.708Z,75.50
2022-08-01T18:57:42.717Z,75.10
2022-08-01T19:00:13.881Z,75.00
2022-08-01T19:02:42.148Z,74.90
2022-08-01T19:05:10.754Z,75.20
2022-08-01T19:08:05.520Z,75.50
2022-08-01T19:10:29.430Z,75.50
2022-08-01T19:12:56.773Z,75.40
2022-08-01T19:15:24.091Z,74.80
2022-08-01T19:17:51.673Z,76.00
2022-08-01T19:20:19.734Z,75.20
2022-08-01T19:22:47.122Z,74.80
2022-08-01T19:25:15.734Z,74.40
2022-08-01T19:27:47.733Z,74.60
2022-08-01T19:30:17.180Z,74.80
2022-08-01T19:32:47.677Z,75.30
2022-08-01T19:35:17.384Z,75.50
2022-08-01T19:37:52.492Z,75.70
2022-08-01T19:40:26.221Z,76.30
2022-08-01T19:42:57.241Z,77.70
2022-08-01T19:45:29.636Z,76.30
2022-08-01T19:47:57.992Z,77.50
2022-08-01T19:50:27.299Z,77.80
2022-08-01T19:52:58.081Z,77.90
2022-08-01T19:55:30.469Z,78.10
2022-08-01T20:00:48.904Z,79.20
2022-08-01T20:03:19.098Z,79.60
2022-08-01T20:05:49.083Z,80.40
2022-08-01T20:08:17.549Z,80.10
2022-08-01T20:10:47.527Z,81.00
2022-08-01T20:13:14.968Z,80.90
2022-08-01T20:15:44.416Z,80.50
2022-08-01T20:18:13.366Z,80.10
2022-08-01T20:20:40.794Z,81.10
2022-08-01T20:23:18.261Z,80.90
2022-08-01T20:25:49.601Z,80.30
2022-08-01T20:28:23.269Z,80.10
2022-08-01T20:31:01.082Z,80.00
2022-08-01T20:33:31.444Z,79.80
2022-08-01T20:36:00.841Z,79.50
2022-08-01T20:38:29.600Z,80.20
2022-08-01T20:41:02.414Z,79.60
2022-08-01T20:43:29.999Z,79.60
2022-08-01T20:45:58.223Z,78.90
2022-08-01T20:48:29.711Z,79.40
2022-08-01T20:51:14.743Z,80.10
2022-08-01T20:53:49.254Z,79.60
2022-08-01T20:56:35.224Z,79.40
2022-08-01T20:59:39.486Z,79.80
2022-08-01T21:02:25.037Z,79.60
2022-08-01T21:05:21.884Z,79.30
2022-08-01T21:07:58.369Z,79.00
2022-08-01T21:10:30.739Z,78.60
2022-08-01T21:13:09.875Z,77.90
2022-08-01T21:15:56.732Z,77.30
2022-08-01T21:19:10.027Z,77.60
2022-08-01T21:21:45.449Z,77.00
2022-08-01T21:24:19.654Z,77.60
2022-08-01T21:26:47.061Z,77.40
2022-08-01T21:29:18.846Z,77.40
2022-08-01T21:32:08.408Z,77.30
2022-08-01T21:34:38.826Z,77.30
2022-08-01T21:37:08.845Z,77.10
2022-08-01T21:39:37.460Z,77.70
2022-08-01T21:42:09.116Z,77.30
2022-08-01T21:44:46.927Z,77.60
2022-08-01T21:47:14.580Z,77.50
2022-08-01T21:49:42.757Z,77.60
2022-08-01T21:52:21.353Z,78.80
2022-08-01T21:55:04.248Z,78.20
2022-08-01T21:57:54.635Z,78.00
2022-08-01T22:00:25.848Z,78.00
2022-08-01T22:03:24.392Z,78.00
2022-08-01T22:05:53.496Z,77.90
2022-08-01T22:08:42.756Z,77.70
2022-08-01T22:11:13.930Z,77.80
2022-08-01T22:13:42.407Z,77.80
2022-08-01T22:16:12.667Z,78.20
2022-08-01T22:18:39.886Z,78.80
2022-08-01T22:21:08.240Z,78.20
2022-08-01T22:23:39.639Z,78.20
2022-08-01T22:26:08.610Z,78.10
2022-08-01T22:28:36.865Z,78.20
2022-08-01T22:31:06.851Z,78.00
2022-08-01T22:33:38.910Z,78.10
2022-08-01T22:36:07.635Z,78.10
2022-08-01T22:38:35.452Z,78.30
2022-08-01T22:41:22.125Z,78.00
2022-08-01T22:44:09.798Z,77.80
2022-08-01T22:46:54.765Z,77.60
2022-08-01T22:49:35.319Z,77.60
2022-08-01T22:52:20.645Z,77.70
2022-08-01T22:55:00.635Z,77.60
2022-08-01T22:57:37.920Z,77.80
2022-08-01T23:00:09.069Z,78.10
2022-08-01T23:02:58.395Z,78.10
2022-08-01T23:05:26.890Z,77.60
2022-08-01T23:07:56.387Z,77.80
2022-08-01T23:10:27.693Z,77.80
2022-08-01T23:12:55.963Z,78.00
2022-08-01T23:15:24.401Z,77.80
2022-08-01T23:17:52.440Z,77.80
2022-08-01T23:20:23.891Z,77.90
2022-08-01T23:22:52.299Z,77.80
2022-08-01T23:25:20.096Z,77.80
2022-08-01T23:27:51.717Z,77.90
2022-08-01T23:30:34.868Z,78.10
2022-08-01T23:33:02.737Z,78.30
2022-08-01T23:35:30.591Z,78.10
2022-08-01T23:38:02.773Z,78.00
2022-08-01T23:40:34.816Z,77.90
2022-08-01T23:43:05.167Z,77.60
2022-08-01T23:46:02.102Z,77.60
2022-08-01T23:48:22.673Z,78.10
2022-08-01T23:50:52.251Z,78.80
2022-08-01T23:53:19.611Z,78.90
2022-08-01T23:55:48.206Z,79.30
2022-08-01T23:58:15.396Z,79.50
